GW3945 Weather Reports


Display with metric or nautical units.
time (UTC)temp
F
wind
direction
speed
MPH
gust
MPH
rain 1hr
in
rain 24hr
in
rain mn
in
humidity
%
barometer
mb
20240228053043 70 190 4.0 5.0 0.00 0.00 0.00 69 1001.8
20240228052540 70 176 5.0 7.0 0.00 0.00 0.00 69 1001.6
20240228052039 70 177 2.0 2.0 0.00 0.00 0.00 68 1001.8
20240228051537 69 160 6.0 8.0 0.00 0.00 0.00 69 1001.0
20240228051037 69 189 2.0 3.0 0.00 0.00 0.00 69 1001.3
20240228050534 70 185 0.0 0.0 0.00 0.00 0.00 68 1001.2
20240228050034 70 169 5.0 7.0 0.00 0.00 0.00 68 1001.0
20240228045532 70 186 5.0 6.0 0.00 0.00 0.00 68 1001.6
20240228045031 70 174 7.0 9.0 0.00 0.00 0.00 68 1001.3
20240228044530 70 139 3.0 5.0 0.00 0.00 0.00 67 1001.3
20240228044030 70 245 5.0 9.0 0.00 0.00 0.00 68 1001.4
20240228043529 70 151 3.0 5.0 0.00 0.00 0.00 68 1001.5
20240228043029 70 160 5.0 6.0 0.00 0.00 0.00 68 1001.7
20240228042527 70 156 1.0 1.0 0.00 0.00 0.00 68 1002.0
20240228042025 70 163 1.0 2.0 0.00 0.00 0.00 68 1001.5
20240228041523 70 177 2.0 2.0 0.00 0.00 0.00 67 1002.3
20240228041023 70 178 2.0 5.0 0.00 0.00 0.00 67 1002.3
20240228040521 70 148 7.0 8.0 0.00 0.00 0.00 66 1001.7
20240228040020 69 233 7.0 9.0 0.00 0.00 0.00 68 1001.5
20240228035518 70 187 3.0 3.0 0.00 0.00 0.00 67 1001.2
20240228035018 70 192 6.0 7.0 0.00 0.00 0.00 67 1001.4
20240228034516 70 164 7.0 8.0 0.00 0.00 0.00 67 1001.6
20240228034014 70 155 6.0 7.0 0.00 0.00 0.00 67 1001.5
20240228033514 70 168 5.0 7.0 0.00 0.00 0.00 67 1002.2
20240228033014 70 171 4.0 6.0 0.00 0.00 0.00 67 1001.9
20240228032512 70 191 2.0 3.0 0.00 0.00 0.00 67 1001.9
20240228032010 70 192 3.0 3.0 0.00 0.00 0.00 67 1001.8
20240228031509 70 219 4.0 5.0 0.00 0.00 0.00 67 1001.9
20240228031006 70 148 3.0 6.0 0.00 0.00 0.00 67 1001.9
20240228030505 70 180 5.0 6.0 0.00 0.00 0.00 67 1001.7
20240228030004 70 159 5.0 7.0 0.00 0.00 0.00 68 1002.0
20240228025503 70 202 3.0 3.0 0.00 0.00 0.00 67 1002.1
20240228025002 70 169 2.0 3.0 0.00 0.00 0.00 66 1002.0
20240228024500 70 200 5.0 7.0 0.00 0.00 0.00 67 1002.1
20240228023959 70 193 5.0 7.0 0.00 0.00 0.00 67 1001.8
20240228023459 70 160 5.0 7.0 0.00 0.00 0.00 67 1002.1
20240228022958 70 209 1.0 2.0 0.00 0.00 0.00 67 1002.2
20240228022456 70 180 5.0 7.0 0.00 0.00 0.00 67 1001.7
20240228021955 70 183 5.0 7.0 0.00 0.00 0.00 66 1001.6
20240228021456 70 176 5.0 6.0 0.00 0.00 0.00 66 1001.7
20240228020955 70 185 6.0 7.0 0.00 0.00 0.00 66 1001.7
20240228020453 70 250 5.0 8.0 0.00 0.00 0.00 66 1001.8
20240228015952 70 175 4.0 5.0 0.00 0.00 0.00 65 1001.7
20240228015452 70 191 7.0 8.0 0.00 0.00 0.00 66 1001.8
20240228014951 71 169 3.0 5.0 0.00 0.00 0.00 66 1001.9
20240228014450 70 246 1.0 2.0 0.00 0.00 0.00 66 1001.8
20240228013948 71 172 3.0 7.0 0.00 0.00 0.00 65 1002.2
20240228013448 70 164 2.0 3.0 0.00 0.00 0.00 66 1001.2
20240228012946 70 162 3.0 6.0 0.00 0.00 0.00 66 1001.5
20240228012444 71 165 2.0 2.0 0.00 0.00 0.00 65 1001.8
20240228011942 71 183 6.0 8.0 0.00 0.00 0.00 65 1001.3
20240228011441 71 174 3.0 5.0 0.00 0.00 0.00 64 1001.5
20240228010941 71 185 5.0 10.0 0.00 0.00 0.00 64 1001.6
20240228010440 71 181 6.0 8.0 0.00 0.00 0.00 64 1001.6
20240228005939 71 126 3.0 8.0 0.00 0.00 0.00 64 1001.5
20240228005439 71 207 5.0 10.0 0.00 0.00 0.00 64 1001.4
20240228004937 71 154 7.0 8.0 0.00 0.00 0.00 64 1001.4
20240228004437 71 158 5.0 6.0 0.00 0.00 0.00 64 1001.2
20240228003936 71 179 8.0 9.0 0.00 0.00 0.00 65 1001.6
20240228003434 71 146 10.0 14.0 0.00 0.00 0.00 64 1001.6
20240228002933 71 177 5.0 7.0 0.00 0.00 0.00 64 1001.6
20240228002432 71 172 1.0 2.0 0.00 0.00 0.00 64 1001.6
20240228001930 72 132 3.0 7.0 0.00 0.00 0.00 63 1001.6
20240228001430 72 154 6.0 8.0 0.00 0.00 0.00 64 1001.4
20240228000928 71 231 7.0 11.0 0.00 0.00 0.00 64 1001.2
20240228000426 71 164 6.0 8.0 0.00 0.00 0.00 64 1001.5
20240227235925 72 177 2.0 3.0 0.00 0.00 0.00 64 1001.5
20240227235424 71 171 9.0 11.0 0.00 0.00 0.00 64 1001.3
20240227234922 71 176 3.0 3.0 0.00 0.00 0.00 65 1001.1
20240227234420 72 162 7.0 8.0 0.00 0.00 0.00 64 1001.2
20240227233918 71 198 4.0 6.0 0.00 0.00 0.00 65 1001.4
20240227233416 71 215 6.0 8.0 0.00 0.00 0.00 64 1001.5
20240227232915 71 118 3.0 5.0 0.00 0.00 0.00 65 1001.3
20240227232414 71 182 7.0 11.0 0.00 0.00 0.00 65 1001.3
20240227231914 71 188 3.0 3.0 0.00 0.00 0.00 65 1001.4
20240227231413 72 177 4.0 5.0 0.00 0.00 0.00 64 1001.3
20240227230913 72 151 9.0 10.0 0.00 0.00 0.00 64 1001.4
20240227230413 72 194 4.0 6.0 0.00 0.00 0.00 64 1001.5
20240227225911 72 164 2.0 2.0 0.00 0.00 0.00 65 1001.3
20240227225409 72 190 4.0 5.0 0.00 0.00 0.00 65 1001.5
20240227224909 72 150 5.0 8.0 0.00 0.00 0.00 65 1001.4
20240227224407 71 185 7.0 8.0 0.00 0.00 0.00 64 1001.0
20240227223905 71 225 4.0 6.0 0.00 0.00 0.00 65 1001.3
20240227223405 71 189 7.0 8.0 0.00 0.00 0.00 65 1001.3
20240227222903 71 158 1.0 5.0 0.00 0.00 0.00 65 1001.9
20240227222402 71 201 4.0 6.0 0.00 0.00 0.00 65 1001.7
20240227221902 72 178 5.0 7.0 0.00 0.00 0.00 65 1001.4
20240227221402 72 163 7.0 8.0 0.00 0.00 0.00 64 1001.6
20240227220901 71 180 4.0 5.0 0.00 0.00 0.00 65 1001.7
20240227220401 71 166 5.0 8.0 0.00 0.00 0.00 65 1001.7
20240227215901 71 175 2.0 2.0 0.00 0.00 0.00 65 1001.7
20240227215400 71 157 4.0 8.0 0.00 0.00 0.00 65 1001.5
20240227214858 71 181 4.0 6.0 0.00 0.00 0.00 66 1001.6
20240227214357 71 184 7.0 8.0 0.00 0.00 0.00 66 1001.5
20240227213857 71 135 4.0 5.0 0.00 0.00 0.00 66 1001.6
20240227213356 71 174 3.0 5.0 0.00 0.00 0.00 66 1001.4
20240227212854 71 196 4.0 5.0 0.00 0.00 0.00 66 1001.5
20240227212353 71 233 3.0 3.0 0.00 0.00 0.00 66 1001.6
20240227211852 71 152 2.0 3.0 0.00 0.00 0.00 67 1001.3
20240227211350 71 186 3.0 5.0 0.00 0.00 0.00 66 1001.4
20240227210850 71 237 2.0 5.0 0.00 0.00 0.00 67 1001.5
20240227210349 71 196 5.0 8.0 0.00 0.00 0.00 67 1001.5
20240227205848 71 190 2.0 3.0 0.00 0.00 0.00 68 1001.4
20240227205347 70 276 1.0 3.0 0.00 0.00 0.00 68 1001.5
20240227204846 70 179 4.0 7.0 0.00 0.00 0.00 68 1001.7
20240227204344 70 223 1.0 1.0 0.00 0.00 0.00 68 1001.2
20240227203844 70 154 2.0 3.0 0.00 0.00 0.00 68 1001.4
20240227203344 70 193 5.0 7.0 0.00 0.00 0.00 69 1001.4
20240227202843 70 207 9.0 18.0 0.00 0.00 0.00 68 1001.5
20240227202342 69 195 6.0 8.0 0.00 0.00 0.00 70 1001.4
20240227201841 69 159 5.0 6.0 0.00 0.00 0.00 70 1001.3
20240227201341 69 156 5.0 6.0 0.00 0.00 0.00 71 1001.6
20240227200840 68 170 5.0 8.0 0.00 0.00 0.00 72 1001.3
20240227200341 68 185 4.0 5.0 0.00 0.00 0.00 71 1001.5
20240227195839 68 169 6.0 10.0 0.00 0.00 0.00 72 1001.5
20240227195337 68 137 2.0 3.0 0.00 0.00 0.00 72 1001.6
20240227194837 68 198 4.0 6.0 0.00 0.00 0.00 73 1001.5
20240227194336 68 194 4.0 6.0 0.00 0.00 0.00 73 1001.6
20240227193835 68 162 1.0 5.0 0.00 0.00 0.00 74 1001.6
20240227193335 67 156 5.0 6.0 0.00 0.00 0.00 74 1001.9
20240227192836 67 174 5.0 6.0 0.00 0.00 0.00 75 1002.1
20240227192335 67 137 3.0 5.0 0.00 0.00 0.00 75 1001.8
20240227191833 67 139 3.0 7.0 0.00 0.00 0.00 76 1002.0
20240227191331 66 159 5.0 6.0 0.00 0.00 0.00 76 1002.1
20240227190830 66 219 3.0 5.0 0.00 0.00 0.00 76 1002.3
20240227190329 66 221 7.0 8.0 0.00 0.00 0.00 76 1002.5
20240227185827 66 204 5.0 7.0 0.00 0.00 0.00 76 1002.5
20240227185325 66 153 5.0 7.0 0.00 0.00 0.00 76 1002.5
20240227184825 66 175 4.0 6.0 0.00 0.00 0.00 76 1002.8
20240227184325 66 109 1.0 2.0 0.00 0.00 0.00 76 1002.7
20240227183825 66 204 3.0 6.0 0.00 0.00 0.00 77 1002.8
20240227183323 66 164 4.0 6.0 0.00 0.00 0.00 78 1002.6
20240227182821 65 154 6.0 10.0 0.00 0.00 0.00 77 1002.8
20240227182319 65 153 3.0 6.0 0.00 0.00 0.00 79 1003.1
20240227181818 65 184 4.0 5.0 0.00 0.00 0.00 78 1003.3
20240227181317 65 170 4.0 6.0 0.00 0.00 0.00 79 1003.0
20240227180816 65 179 5.0 6.0 0.00 0.00 0.00 79 1003.1
20240227180314 65 213 3.0 5.0 0.00 0.00 0.00 79 1003.4
20240227175812 64 134 1.0 2.0 0.00 0.00 0.00 80 1003.2
20240227175311 64 190 2.0 6.0 0.00 0.00 0.00 80 1003.4
20240227174810 64 199 2.0 3.0 0.00 0.00 0.00 80 1003.5
20240227174309 64 167 2.0 3.0 0.00 0.00 0.00 80 1003.8
20240227173808 64 173 1.0 3.0 0.00 0.00 0.00 81 1004.0
20240227173305 64 178 5.0 6.0 0.00 0.00 0.00 80 1003.8
20240227172805 64 176 3.0 5.0 0.00 0.00 0.00 80 1004.0
20240227172305 64 157 5.0 6.0 0.00 0.00 0.00 80 1004.0
20240227171803 64 166 1.0 2.0 0.00 0.00 0.00 80 1003.9
20240227171302 64 208 3.0 5.0 0.00 0.00 0.00 80 1003.7
20240227170801 64 164 2.0 3.0 0.00 0.00 0.00 80 1004.0
20240227170259 64 163 2.0 3.0 0.00 0.00 0.00 81 1004.0
20240227165758 64 219 1.0 2.0 0.00 0.00 0.00 81 1004.1
20240227165258 64 188 3.0 3.0 0.00 0.00 0.00 81 1004.0
20240227164758 63 105 3.0 3.0 0.00 0.00 0.00 81 1004.0
20240227164256 63 219 3.0 3.0 0.00 0.00 0.00 81 1003.9
20240227163754 63 203 2.0 5.0 0.00 0.00 0.00 82 1004.1
20240227163253 63 167 3.0 6.0 0.00 0.00 0.00 82 1004.0
20240227162753 63 194 5.0 6.0 0.00 0.00 0.00 82 1004.0
20240227162251 63 162 6.0 8.0 0.00 0.00 0.00 82 1003.8
20240227161749 63 182 4.0 6.0 0.00 0.00 0.00 82 1003.8
20240227161248 63 202 4.0 6.0 0.00 0.00 0.00 83 1003.9
20240227160746 63 189 3.0 3.0 0.00 0.00 0.00 83 1004.1
20240227160245 63 167 6.0 7.0 0.00 0.00 0.00 83 1004.3
20240227155744 62 158 4.0 5.0 0.00 0.00 0.00 83 1004.4
20240227155244 62 176 6.0 8.0 0.00 0.00 0.00 84 1004.1
20240227154742 62 172 6.0 9.0 0.00 0.00 0.00 84 1003.7
20240227154241 62 176 4.0 5.0 0.00 0.00 0.00 85 1004.0
20240227153739 62 221 2.0 3.0 0.00 0.00 0.00 85 1004.1
20240227153238 62 169 4.0 7.0 0.00 0.00 0.00 85 1004.0
20240227152736 62 132 6.0 8.0 0.00 0.00 0.00 85 1003.9
20240227152236 61 189 6.0 7.0 0.00 0.00 0.00 86 1004.1
20240227151735 61 157 3.0 3.0 0.00 0.00 0.00 86 1004.8
20240227151234 61 158 4.0 5.0 0.00 0.00 0.00 86 1004.7
20240227150734 61 184 4.0 5.0 0.00 0.00 0.00 86 1005.1
20240227150234 61 148 3.0 3.0 0.00 0.00 0.00 86 1005.4
20240227145732 61 167 3.0 3.0 0.00 0.00 0.00 85 1005.4
20240227145232 61 209 2.0 2.0 0.00 0.00 0.00 86 1005.3
20240227144730 61 159 6.0 7.0 0.00 0.00 0.00 86 1005.0
20240227144228 61 162 8.0 9.0 0.00 0.00 0.00 85 1004.7
20240227143726 61 162 5.0 7.0 0.00 0.00 0.00 85 1004.6
20240227143226 61 173 5.0 6.0 0.00 0.00 0.00 86 1004.6
20240227142724 61 217 5.0 7.0 0.00 0.00 0.00 86 1005.2
20240227142223 61 169 6.0 7.0 0.00 0.00 0.00 86 1005.1
20240227141721 61 199 2.0 3.0 0.00 0.00 0.00 86 1005.1
20240227141220 61 158 3.0 3.0 0.00 0.00 0.00 86 1004.9
20240227140718 61 168 4.0 5.0 0.00 0.00 0.00 86 1005.3
20240227140215 61 181 5.0 6.0 0.00 0.00 0.00 86 1005.5
20240227135715 61 187 3.0 3.0 0.00 0.00 0.00 86 1005.9
20240227135213 61 188 4.0 6.0 0.00 0.00 0.00 86 1005.7
20240227134712 61 162 5.0 6.0 0.00 0.00 0.00 86 1005.3
20240227134212 60 183 1.0 2.0 0.00 0.00 0.00 87 1005.6
20240227133710 61 166 2.0 3.0 0.00 0.00 0.00 86 1004.5
20240227133210 61 155 2.0 2.0 0.00 0.00 0.00 86 1005.1
20240227132708 61 181 3.0 5.0 0.00 0.00 0.00 86 1004.8
20240227132207 60 107 2.0 5.0 0.00 0.00 0.00 86 1005.2
20240227131707 60 173 4.0 5.0 0.00 0.00 0.00 86 1005.4
20240227131206 60 244 3.0 5.0 0.00 0.00 0.00 86 1005.1
20240227130706 60 204 5.0 6.0 0.00 0.00 0.00 86 1005.3
20240227130205 60 179 1.0 5.0 0.00 0.00 0.00 86 1005.1
20240227125703 60 186 4.0 5.0 0.00 0.00 0.00 87 1005.1
20240227125202 60 181 2.0 3.0 0.00 0.00 0.00 87 1004.8
20240227124702 60 150 2.0 3.0 0.00 0.00 0.00 87 1003.7
20240227124200 60 172 3.0 5.0 0.00 0.00 0.00 88 1004.3
20240227123659 60 149 5.0 6.0 0.00 0.00 0.00 87 1004.6
20240227123157 60 177 5.0 6.0 0.00 0.00 0.00 86 1004.6
20240227122656 60 200 5.0 8.0 0.00 0.00 0.00 86 1004.4
20240227122155 60 214 5.0 8.0 0.00 0.00 0.00 85 1003.9
20240227121654 60 198 5.0 6.0 0.00 0.00 0.00 86 1004.0
20240227121152 60 129 6.0 8.0 0.00 0.00 0.00 86 1004.3
20240227120652 60 153 7.0 8.0 0.00 0.00 0.00 85 1003.8
20240227120150 60 202 2.0 3.0 0.00 0.00 0.00 85 1003.8
20240227115648 60 201 3.0 5.0 0.00 0.00 0.00 86 1003.9
20240227115147 60 173 4.0 5.0 0.00 0.00 0.00 86 1004.0
20240227114645 60 181 2.0 3.0 0.00 0.00 0.00 86 1004.0
20240227114144 60 207 2.0 3.0 0.00 0.00 0.00 85 1004.3
20240227113643 60 188 2.0 3.0 0.00 0.00 0.00 85 1003.9
20240227113141 60 191 3.0 3.0 0.00 0.00 0.00 85 1003.8
20240227112641 60 325 5.0 6.0 0.00 0.00 0.00 84 1003.4
20240227112138 60 155 2.0 5.0 0.00 0.00 0.00 84 1003.4
20240227111638 60 186 1.0 3.0 0.00 0.00 0.00 85 1004.0
20240227111137 60 170 4.0 5.0 0.00 0.00 0.00 84 1004.9
20240227110637 60 159 4.0 5.0 0.00 0.00 0.00 83 1003.9
20240227110136 61 174 5.0 6.0 0.00 0.00 0.00 80 1003.9
20240227105636 61 181 4.0 5.0 0.00 0.00 0.00 80 1004.3
20240227105135 62 197 5.0 6.0 0.00 0.00 0.00 77 1003.7
20240227104634 62 153 5.0 6.0 0.00 0.00 0.00 76 1003.5
20240227104132 62 178 4.0 6.0 0.00 0.00 0.00 75 1003.2
20240227103632 62 160 3.0 3.0 0.00 0.00 0.00 75 1003.6
20240227103129 62 185 5.0 6.0 0.00 0.00 0.00 75 1003.5
20240227102627 62 160 3.0 5.0 0.00 0.00 0.00 74 1003.5
20240227102126 62 164 6.0 7.0 0.00 0.00 0.00 74 1003.7
20240227101625 62 183 3.0 5.0 0.00 0.00 0.00 73 1003.7
20240227101125 63 135 3.0 5.0 0.00 0.00 0.00 71 1003.6
20240227100624 63 175 5.0 6.0 0.00 0.00 0.00 71 1003.9
20240227100121 63 152 5.0 6.0 0.00 0.00 0.00 70 1003.9
20240227095620 63 156 3.0 5.0 0.00 0.00 0.00 70 1004.3
20240227095120 63 201 5.0 6.0 0.00 0.00 0.00 70 1003.9
20240227094619 63 134 1.0 2.0 0.00 0.00 0.00 69 1004.1
20240227094116 63 186 3.0 5.0 0.00 0.00 0.00 68 1004.5
20240227093614 63 150 5.0 6.0 0.00 0.00 0.00 68 1004.9
20240227093112 63 176 5.0 6.0 0.00 0.00 0.00 68 1004.5
20240227092611 63 156 5.0 7.0 0.00 0.00 0.00 67 1004.7
20240227092109 63 215 3.0 3.0 0.00 0.00 0.00 67 1004.9
20240227091608 63 178 4.0 7.0 0.00 0.00 0.00 66 1005.2
20240227091108 63 164 5.0 8.0 0.00 0.00 0.00 66 1005.3
20240227090607 63 204 5.0 6.0 0.00 0.00 0.00 66 1005.1
20240227090105 63 182 6.0 8.0 0.00 0.00 0.00 65 1005.0
20240227085602 63 168 3.0 5.0 0.00 0.00 0.00 65 1004.8
20240227085101 63 177 4.0 6.0 0.00 0.00 0.00 64 1005.0
20240227084600 63 195 4.0 5.0 0.00 0.00 0.00 64 1004.8
20240227084058 64 132 4.0 5.0 0.00 0.00 0.00 64 1004.9
20240227083558 63 167 8.0 9.0 0.00 0.00 0.00 63 1004.9
20240227083057 64 173 4.0 5.0 0.00 0.00 0.00 63 1005.1
20240227082557 64 155 5.0 6.0 0.00 0.00 0.00 62 1005.0
20240227082055 64 154 4.0 5.0 0.00 0.00 0.00 62 1005.1
20240227081554 64 170 5.0 5.0 0.00 0.00 0.00 61 1005.3
20240227081054 64 188 5.0 6.0 0.00 0.00 0.00 61 1005.2
20240227080553 64 130 5.0 6.0 0.00 0.00 0.00 60 1005.3
20240227080052 64 146 2.0 2.0 0.00 0.00 0.00 60 1005.4
20240227075551 65 139 3.0 3.0 0.00 0.00 0.00 59 1005.6
20240227075049 65 155 5.0 6.0 0.00 0.00 0.00 59 1005.8
20240227074548 65 184 4.0 5.0 0.00 0.00 0.00 58 1005.8
20240227074048 65 190 6.0 7.0 0.00 0.00 0.00 58 1005.9
20240227073546 65 162 4.0 5.0 0.00 0.00 0.00 57 1006.2
20240227073044 65 199 5.0 7.0 0.00 0.00 0.00 57 1005.9
20240227072544 65 200 3.0 5.0 0.00 0.00 0.00 56 1006.1
20240227072043 65 170 5.0 6.0 0.00 0.00 0.00 56 1005.8
20240227071542 65 177 5.0 7.0 0.00 0.00 0.00 56 1006.2
20240227071041 65 165 3.0 3.0 0.00 0.00 0.00 55 1006.2
20240227070540 65 140 4.0 6.0 0.00 0.00 0.00 55 1006.0
20240227070039 64 158 5.0 7.0 0.00 0.00 0.00 55 1006.2
20240227065538 65 163 3.0 3.0 0.00 0.00 0.00 55 1006.4
20240227065036 64 162 5.0 6.0 0.00 0.00 0.00 55 1006.3
20240227064537 64 157 4.0 5.0 0.00 0.00 0.00 55 1006.5
20240227064035 65 154 3.0 3.0 0.00 0.00 0.00 55 1006.4
20240227063534 65 132 3.0 3.0 0.00 0.00 0.00 55 1006.5
20240227063033 65 187 5.0 6.0 0.00 0.00 0.00 54 1006.5
20240227062532 65 132 3.0 3.0 0.00 0.00 0.00 54 1006.7
20240227062031 65 144 3.0 3.0 0.00 0.00 0.00 54 1006.6
20240227061531 65 161 3.0 6.0 0.00 0.00 0.00 54 1006.9
20240227061029 65 160 4.0 5.0 0.00 0.00 0.00 54 1006.8
20240227060528 65 158 0.0 0.0 0.00 0.00 0.00 54 1006.7
20240227060027 65 170 2.0 2.0 0.00 0.00 0.00 54 1007.0
20240227055527 65 150 3.0 3.0 0.00 0.00 0.00 53 1006.9
20240227055027 65 157 4.0 6.0 0.00 0.00 0.00 54 1007.0
20240227054527 65 155 5.0 6.0 0.00 0.00 0.00 53 1007.1
20240227054026 65 143 3.0 3.0 0.00 0.00 0.00 53 1007.3
20240227053524 65 163 3.0 6.0 0.00 0.00 0.00 53 1007.1